createdAt,value
2018-04-30T00:01:02.909Z,3.60
2018-04-30T00:03:30.497Z,4.63
2018-04-30T00:05:58.085Z,4.77
2018-04-30T00:08:25.951Z,4.97
2018-04-30T00:10:53.558Z,5.30
2018-04-30T00:13:21.166Z,4.77
2018-04-30T00:15:48.762Z,5.03
2018-04-30T00:18:16.313Z,5.23
2018-04-30T00:20:43.936Z,4.83
2018-04-30T00:23:11.858Z,4.77
2018-04-30T00:25:40.078Z,4.80
2018-04-30T00:28:07.900Z,4.47
2018-04-30T00:30:35.460Z,4.10
2018-04-30T00:33:03.025Z,4.60
2018-04-30T00:35:30.767Z,4.10
2018-04-30T00:37:58.363Z,3.80
2018-04-30T00:40:25.933Z,3.40
2018-04-30T00:42:53.533Z,4.37
2018-04-30T00:45:21.080Z,4.00
2018-04-30T00:47:48.788Z,4.60
2018-04-30T00:50:16.561Z,4.50
2018-04-30T00:52:44.268Z,4.67
2018-04-30T00:55:11.839Z,4.50
2018-04-30T00:57:39.434Z,5.17
2018-04-30T01:00:07.222Z,4.90
2018-04-30T01:02:34.786Z,4.80
2018-04-30T01:05:02.357Z,4.80
2018-04-30T01:07:29.916Z,4.33
2018-04-30T01:09:57.702Z,3.90
2018-04-30T01:12:25.432Z,4.33
2018-04-30T01:14:53.000Z,4.47
2018-04-30T01:17:20.619Z,4.63
2018-04-30T01:19:48.184Z,5.30
2018-04-30T01:22:15.782Z,4.40
2018-04-30T01:24:43.348Z,5.00
2018-04-30T01:27:10.905Z,4.77
2018-04-30T01:29:38.516Z,5.50
2018-04-30T01:32:06.092Z,5.70
2018-04-30T01:34:33.835Z,5.43
2018-04-30T01:37:01.623Z,5.33
2018-04-30T01:39:29.419Z,5.30
2018-04-30T01:41:57.030Z,5.40
2018-04-30T01:44:24.689Z,5.10
2018-04-30T01:46:52.272Z,5.33
2018-04-30T01:49:19.854Z,5.97
2018-04-30T01:51:47.493Z,5.20
2018-04-30T01:54:15.330Z,5.80
2018-04-30T01:56:42.939Z,5.57
2018-04-30T01:59:10.513Z,5.73
2018-04-30T02:01:38.255Z,5.33
2018-04-30T02:04:06.099Z,5.60
2018-04-30T02:06:33.698Z,5.47
2018-04-30T02:09:01.256Z,5.50
2018-04-30T02:11:28.824Z,5.53
2018-04-30T02:13:56.467Z,5.50
2018-04-30T02:16:24.354Z,6.33
2018-04-30T02:18:52.199Z,5.33
2018-04-30T02:21:19.767Z,5.40
2018-04-30T02:23:47.364Z,5.20
2018-04-30T02:26:14.937Z,5.70
2018-04-30T02:28:42.560Z,5.57
2018-04-30T02:31:10.213Z,5.43
2018-04-30T02:33:37.817Z,5.50
2018-04-30T02:36:05.634Z,6.20
2018-04-30T02:38:33.207Z,5.43
2018-04-30T02:41:00.970Z,5.83
2018-04-30T02:43:28.788Z,6.10
2018-04-30T02:45:56.506Z,5.50
2018-04-30T02:48:24.072Z,5.80
2018-04-30T02:50:51.689Z,6.33
2018-04-30T02:53:19.461Z,6.33
2018-04-30T02:55:47.298Z,6.13
2018-04-30T02:58:14.849Z,6.10
2018-04-30T03:00:42.718Z,6.27
2018-04-30T03:03:10.323Z,6.23
2018-04-30T03:05:37.893Z,6.03
2018-04-30T03:08:05.629Z,6.20
2018-04-30T03:10:33.391Z,6.33
2018-04-30T03:13:00.969Z,6.10
2018-04-30T03:15:28.637Z,6.80
2018-04-30T03:17:56.219Z,5.83
2018-04-30T03:20:24.160Z,6.20
2018-04-30T03:22:51.779Z,6.63
2018-04-30T03:25:19.333Z,6.57
2018-04-30T03:27:46.948Z,6.33
2018-04-30T03:30:14.527Z,6.93
2018-04-30T03:32:42.121Z,6.43
2018-04-30T03:35:09.781Z,6.57
2018-04-30T03:37:37.337Z,6.00
2018-04-30T03:40:04.976Z,7.20
2018-04-30T03:42:32.564Z,8.30
2018-04-30T03:45:00.152Z,7.80
2018-04-30T03:47:27.752Z,7.13
2018-04-30T03:49:55.322Z,7.70
2018-04-30T03:52:22.890Z,7.80
2018-04-30T03:54:50.483Z,7.40
2018-04-30T03:57:18.120Z,7.50
2018-04-30T03:59:45.737Z,8.03
2018-04-30T04:02:25.289Z,7.43
2018-04-30T04:05:04.684Z,7.80
2018-04-30T04:07:32.385Z,7.57
2018-04-30T04:09:59.968Z,7.33
2018-04-30T04:12:27.682Z,7.93
2018-04-30T04:14:55.537Z,7.40
2018-04-30T04:17:23.255Z,7.23
2018-04-30T04:19:50.854Z,7.80
2018-04-30T04:22:18.408Z,7.07
2018-04-30T04:24:46.071Z,7.63
2018-04-30T04:27:13.701Z,8.17
2018-04-30T04:29:41.545Z,8.70
2018-04-30T04:32:09.163Z,7.80
2018-04-30T04:34:36.737Z,7.33
2018-04-30T04:37:04.304Z,7.00
2018-04-30T04:39:32.119Z,7.30
2018-04-30T04:41:59.763Z,7.40
2018-04-30T04:44:27.370Z,7.40
2018-04-30T04:46:55.063Z,7.73
2018-04-30T04:49:22.784Z,8.77
2018-04-30T04:51:50.399Z,8.43
2018-04-30T04:54:18.144Z,8.10
2018-04-30T04:56:45.843Z,8.53
2018-04-30T04:59:13.410Z,8.67
2018-04-30T05:01:41.069Z,8.50
2018-04-30T05:04:08.684Z,7.83
2018-04-30T05:06:36.378Z,8.97
2018-04-30T05:09:03.993Z,9.00
2018-04-30T05:11:31.544Z,8.33
2018-04-30T05:13:59.103Z,9.40
2018-04-30T05:16:26.817Z,9.03
2018-04-30T05:18:54.523Z,6.53
2018-04-30T05:21:22.089Z,5.57
2018-04-30T05:23:49.732Z,4.43
2018-04-30T05:26:17.297Z,3.63
2018-04-30T05:28:44.938Z,5.30
2018-04-30T05:31:12.517Z,7.20
2018-04-30T05:33:40.102Z,4.50
2018-04-30T05:36:07.931Z,4.93
2018-04-30T05:38:35.749Z,4.53
2018-04-30T05:41:03.533Z,4.83
2018-04-30T05:43:31.286Z,3.97
2018-04-30T05:45:58.895Z,5.43
2018-04-30T05:48:26.512Z,5.43
2018-04-30T05:50:54.079Z,5.03
2018-04-30T05:53:21.963Z,5.17
2018-04-30T05:55:49.536Z,5.73
2018-04-30T05:58:17.088Z,5.27
2018-04-30T06:00:44.666Z,5.20
2018-04-30T06:03:12.232Z,5.40
2018-04-30T06:05:39.844Z,5.53
2018-04-30T06:08:07.404Z,5.67
2018-04-30T06:10:34.969Z,5.60
2018-04-30T06:13:02.801Z,5.80
2018-04-30T06:15:30.354Z,5.83
2018-04-30T06:17:58.138Z,5.57
2018-04-30T06:20:25.747Z,5.33
2018-04-30T06:22:53.304Z,21.20
2018-04-30T06:25:21.091Z,5.87
2018-04-30T06:27:48.701Z,5.10
2018-04-30T06:30:16.529Z,4.40
2018-04-30T06:32:44.247Z,4.60
2018-04-30T06:35:12.029Z,4.67
2018-04-30T06:37:39.601Z,3.90
2018-04-30T06:40:07.186Z,4.57
2018-04-30T06:42:34.800Z,4.80
2018-04-30T06:45:02.540Z,4.43
2018-04-30T06:47:30.105Z,3.90
2018-04-30T06:49:57.678Z,4.80
2018-04-30T06:52:25.232Z,4.30
2018-04-30T06:54:52.836Z,4.80
2018-04-30T06:57:20.526Z,3.87
2018-04-30T06:59:48.406Z,4.07
2018-04-30T07:02:15.996Z,4.23
2018-04-30T07:04:43.668Z,3.60
2018-04-30T07:07:11.276Z,3.90
2018-04-30T07:09:39.010Z,4.00
2018-04-30T07:12:06.636Z,3.93
2018-04-30T07:14:34.354Z,3.70
2018-04-30T07:17:01.967Z,3.83
2018-04-30T07:19:29.557Z,4.40
2018-04-30T07:21:57.104Z,3.83
2018-04-30T07:24:24.666Z,4.60
2018-04-30T07:26:52.238Z,4.50
2018-04-30T07:29:19.853Z,4.50
2018-04-30T07:31:47.680Z,4.37
2018-04-30T07:34:15.228Z,4.93
2018-04-30T07:36:42.828Z,6.07
2018-04-30T07:39:10.724Z,4.63
2018-04-30T07:41:38.339Z,6.37
2018-04-30T07:44:06.005Z,5.10
2018-04-30T07:46:33.568Z,4.37
2018-04-30T07:49:01.126Z,4.73
2018-04-30T07:51:28.700Z,4.80
2018-04-30T07:53:56.260Z,4.97
2018-04-30T07:56:23.912Z,4.80
2018-04-30T07:58:51.453Z,4.50
2018-04-30T08:01:19.176Z,5.00
2018-04-30T08:03:46.914Z,5.13
2018-04-30T08:06:14.633Z,4.97
2018-04-30T08:08:42.249Z,4.37
2018-04-30T08:11:09.813Z,4.33
2018-04-30T08:13:37.372Z,4.00
2018-04-30T08:16:04.960Z,4.73
2018-04-30T08:18:32.605Z,4.60
2018-04-30T08:21:00.438Z,4.90
2018-04-30T08:23:28.064Z,4.60
2018-04-30T08:25:55.689Z,4.13
2018-04-30T08:28:23.259Z,4.63
2018-04-30T08:30:50.816Z,4.33
2018-04-30T08:33:18.522Z,3.83
2018-04-30T08:35:46.112Z,3.90
2018-04-30T08:38:13.759Z,4.27
2018-04-30T08:40:41.584Z,3.80
2018-04-30T08:43:09.168Z,3.80
2018-04-30T08:45:36.789Z,4.83
2018-04-30T08:48:04.397Z,4.27
2018-04-30T08:50:32.120Z,4.90
2018-04-30T08:52:59.699Z,4.30
2018-04-30T08:55:27.493Z,4.47
2018-04-30T08:57:55.314Z,4.20
2018-04-30T09:00:22.887Z,4.00
2018-04-30T09:02:50.647Z,4.00
2018-04-30T09:05:19.246Z,4.13
2018-04-30T09:07:46.811Z,4.87
2018-04-30T09:10:14.516Z,3.93
2018-04-30T09:12:42.091Z,3.80
2018-04-30T09:15:09.841Z,3.67
2018-04-30T09:17:37.400Z,4.00
2018-04-30T09:20:05.071Z,4.00
2018-04-30T09:22:32.672Z,4.10
2018-04-30T09:25:00.415Z,4.00
2018-04-30T09:27:28.047Z,3.70
2018-04-30T09:29:55.623Z,3.83
2018-04-30T09:32:23.188Z,3.40
2018-04-30T09:34:50.777Z,3.60
2018-04-30T09:37:18.467Z,3.73
2018-04-30T09:39:46.174Z,3.77
2018-04-30T09:42:13.745Z,3.73
2018-04-30T09:44:41.458Z,3.70
2018-04-30T09:47:09.363Z,3.53
2018-04-30T09:49:36.872Z,3.73
2018-04-30T09:52:04.464Z,3.67
2018-04-30T09:54:32.332Z,3.90
2018-04-30T09:56:59.865Z,4.40
2018-04-30T09:59:27.490Z,3.90
2018-04-30T10:01:55.286Z,3.30
2018-04-30T10:04:22.851Z,3.47
2018-04-30T10:06:50.526Z,3.60
2018-04-30T10:09:18.073Z,3.60
2018-04-30T10:11:45.696Z,3.80
2018-04-30T10:14:13.253Z,3.60
2018-04-30T10:16:40.965Z,3.17
2018-04-30T10:19:08.568Z,3.10
2018-04-30T10:21:36.191Z,3.53
2018-04-30T10:24:03.961Z,4.00
2018-04-30T10:26:31.671Z,3.20
2018-04-30T10:28:59.254Z,3.70
2018-04-30T10:31:26.970Z,3.77
2018-04-30T10:33:54.684Z,3.13
2018-04-30T10:36:22.540Z,3.30
2018-04-30T10:38:50.358Z,3.43
2018-04-30T10:41:17.989Z,6.93
2018-04-30T10:43:45.796Z,7.77
2018-04-30T10:46:13.351Z,7.60
2018-04-30T10:48:41.022Z,3.93
2018-04-30T10:51:08.572Z,3.53
2018-04-30T10:53:36.156Z,3.70
2018-04-30T10:56:03.985Z,3.90
2018-04-30T10:58:31.539Z,4.10
2018-04-30T11:00:59.160Z,4.00
2018-04-30T11:03:26.748Z,4.27
2018-04-30T11:05:54.556Z,3.80
2018-04-30T11:08:22.121Z,4.00
2018-04-30T11:10:49.895Z,4.00
2018-04-30T11:13:17.528Z,3.80
2018-04-30T11:15:45.090Z,6.73
2018-04-30T11:18:12.849Z,12.53
2018-04-30T11:20:40.417Z,4.07
2018-04-30T11:23:08.152Z,3.73
2018-04-30T11:25:35.774Z,4.33
2018-04-30T11:28:03.411Z,3.90
2018-04-30T11:30:31.004Z,4.20
2018-04-30T11:32:58.726Z,4.00
2018-04-30T11:35:26.662Z,4.07
2018-04-30T11:37:54.308Z,4.97
2018-04-30T11:40:22.112Z,4.53
2018-04-30T11:42:49.819Z,4.47
2018-04-30T11:45:17.556Z,4.53
2018-04-30T11:47:45.159Z,4.00
2018-04-30T11:50:12.798Z,4.20
2018-04-30T11:52:40.396Z,4.43
2018-04-30T11:55:07.961Z,4.50
2018-04-30T11:57:35.630Z,3.93
2018-04-30T12:00:03.244Z,4.20
2018-04-30T12:02:30.975Z,4.27
2018-04-30T12:04:58.567Z,3.90
2018-04-30T12:07:26.121Z,5.50
2018-04-30T12:09:53.821Z,7.70
2018-04-30T12:12:21.441Z,3.93
2018-04-30T12:14:49.137Z,4.63
2018-04-30T12:17:16.773Z,4.23
2018-04-30T12:19:44.606Z,3.90
2018-04-30T12:22:12.457Z,4.10
2018-04-30T12:24:40.076Z,3.87
2018-04-30T12:27:07.773Z,3.90
2018-04-30T12:29:35.575Z,3.73
2018-04-30T12:32:03.393Z,3.77
2018-04-30T12:34:30.969Z,7.53
2018-04-30T12:36:58.730Z,12.07
2018-04-30T12:39:26.352Z,4.10
2018-04-30T12:41:53.912Z,4.47
2018-04-30T12:44:21.584Z,4.07
2018-04-30T12:46:49.405Z,4.50
2018-04-30T12:49:16.965Z,4.10
2018-04-30T12:51:44.597Z,4.40
2018-04-30T12:54:12.356Z,4.00
2018-04-30T12:56:39.932Z,4.47
2018-04-30T12:59:07.693Z,4.50
2018-04-30T13:01:35.512Z,4.80
2018-04-30T13:04:03.161Z,4.63
2018-04-30T13:06:30.827Z,4.60
2018-04-30T13:08:58.627Z,4.20
2018-04-30T13:11:26.284Z,4.07
2018-04-30T13:13:53.850Z,4.40
2018-04-30T13:16:21.602Z,3.83
2018-04-30T13:18:49.279Z,4.10
2018-04-30T13:21:17.023Z,4.13
2018-04-30T13:23:44.603Z,4.20
2018-04-30T13:26:12.186Z,4.00
2018-04-30T13:28:40.042Z,4.67
2018-04-30T13:31:07.724Z,4.00
2018-04-30T13:33:35.285Z,4.40
2018-04-30T13:36:02.860Z,9.03
2018-04-30T13:38:30.408Z,4.03
2018-04-30T13:40:58.071Z,4.50
2018-04-30T13:43:25.819Z,4.10
2018-04-30T13:45:53.412Z,4.03
2018-04-30T13:48:20.974Z,4.03
2018-04-30T13:50:48.541Z,4.23
2018-04-30T13:53:16.129Z,4.17
2018-04-30T13:55:43.685Z,4.17
2018-04-30T13:58:11.240Z,4.30
2018-04-30T14:00:39.044Z,3.77
2018-04-30T14:03:06.629Z,4.30
2018-04-30T14:05:34.489Z,4.43
2018-04-30T14:08:02.199Z,4.20
2018-04-30T14:10:29.808Z,4.50
2018-04-30T14:12:57.507Z,4.83
2018-04-30T14:15:25.065Z,4.50
2018-04-30T14:17:52.677Z,4.30
2018-04-30T14:20:20.272Z,4.23
2018-04-30T14:22:47.821Z,4.47
2018-04-30T14:25:15.429Z,4.60
2018-04-30T14:27:43.128Z,5.47
2018-04-30T14:30:10.680Z,4.20
2018-04-30T14:32:38.478Z,4.20
2018-04-30T14:35:06.043Z,4.60
2018-04-30T14:37:33.816Z,4.60
2018-04-30T14:40:01.379Z,4.97
2018-04-30T14:42:29.151Z,4.20
2018-04-30T14:44:56.971Z,4.50
2018-04-30T14:47:24.532Z,4.97
2018-04-30T14:49:52.224Z,5.50
2018-04-30T14:52:19.860Z,4.83
2018-04-30T14:54:47.642Z,5.00
2018-04-30T14:57:15.340Z,5.47
2018-04-30T14:59:42.920Z,5.33
2018-04-30T15:02:10.471Z,5.00
2018-04-30T15:04:38.192Z,5.17
2018-04-30T15:07:05.932Z,5.03
2018-04-30T15:09:33.484Z,4.63
2018-04-30T15:12:01.062Z,4.57
2018-04-30T15:14:28.671Z,4.77
2018-04-30T15:16:56.295Z,4.70
2018-04-30T15:19:23.890Z,5.00
2018-04-30T15:21:51.641Z,4.53
2018-04-30T15:24:19.208Z,4.50
2018-04-30T15:26:46.869Z,4.60
2018-04-30T15:29:14.595Z,4.67
2018-04-30T15:31:42.205Z,4.63
2018-04-30T15:34:09.895Z,5.30
2018-04-30T15:36:37.613Z,4.73
2018-04-30T15:39:05.241Z,5.23
2018-04-30T15:41:32.987Z,4.70
2018-04-30T15:44:00.614Z,4.57
2018-04-30T15:46:28.179Z,4.60
2018-04-30T15:48:56.040Z,4.93
2018-04-30T15:51:23.612Z,4.40
2018-04-30T15:53:51.204Z,5.47
2018-04-30T15:56:18.833Z,5.83
2018-04-30T15:58:46.388Z,4.80
2018-04-30T16:01:14.077Z,5.33
2018-04-30T16:03:41.620Z,5.87
2018-04-30T16:06:09.186Z,6.77
2018-04-30T16:08:36.789Z,7.13
2018-04-30T16:11:04.361Z,6.27
2018-04-30T16:13:31.930Z,6.33
2018-04-30T16:15:59.492Z,6.50
2018-04-30T16:18:27.029Z,6.23
2018-04-30T16:20:54.650Z,8.07
2018-04-30T16:23:22.213Z,5.90
2018-04-30T16:25:49.809Z,6.30
2018-04-30T16:28:17.626Z,5.60
2018-04-30T16:30:45.446Z,6.00
2018-04-30T16:33:13.059Z,5.67
2018-04-30T16:35:40.617Z,5.87
2018-04-30T16:38:08.216Z,5.30
2018-04-30T16:40:35.813Z,5.10
2018-04-30T16:43:03.411Z,5.13
2018-04-30T16:45:31.041Z,5.07
2018-04-30T16:47:58.773Z,5.13
2018-04-30T16:50:26.351Z,4.67
2018-04-30T16:52:53.957Z,4.93
2018-04-30T16:55:21.683Z,4.80
2018-04-30T16:57:49.544Z,4.83
2018-04-30T17:00:17.173Z,5.10
2018-04-30T17:02:44.771Z,4.67
2018-04-30T17:05:12.333Z,5.20
2018-04-30T17:07:39.920Z,5.17
2018-04-30T17:10:07.582Z,4.90
2018-04-30T17:12:35.176Z,7.00
2018-04-30T17:15:02.736Z,5.07
2018-04-30T17:17:30.333Z,5.30
2018-04-30T17:19:57.919Z,5.27
2018-04-30T17:22:25.540Z,9.40
2018-04-30T17:24:53.124Z,10.53
2018-04-30T17:27:20.966Z,5.27
2018-04-30T17:29:48.781Z,5.30
2018-04-30T17:32:16.389Z,5.47
2018-04-30T17:34:44.244Z,5.77
2018-04-30T17:37:11.803Z,5.00
2018-04-30T17:39:39.372Z,5.10
2018-04-30T17:42:06.956Z,5.50
2018-04-30T17:44:34.544Z,5.97
2018-04-30T17:47:02.201Z,5.27
2018-04-30T17:49:29.759Z,18.67
2018-04-30T17:51:57.541Z,10.10
2018-04-30T17:54:25.242Z,6.40
2018-04-30T17:56:52.824Z,6.03
2018-04-30T17:59:20.596Z,5.70
2018-04-30T18:01:48.416Z,6.60
2018-04-30T18:04:16.173Z,9.13
2018-04-30T18:06:44.124Z,8.70
2018-04-30T18:09:11.734Z,9.77
2018-04-30T18:11:39.285Z,8.93
2018-04-30T18:14:06.884Z,10.00
2018-04-30T18:16:34.444Z,9.67
2018-04-30T18:19:02.136Z,8.87
2018-04-30T18:21:29.750Z,8.67
2018-04-30T18:23:57.331Z,10.07
2018-04-30T18:26:25.094Z,11.03
2018-04-30T18:28:52.912Z,10.23
2018-04-30T18:31:20.476Z,10.23
2018-04-30T18:33:48.104Z,10.30
2018-04-30T18:36:15.672Z,10.23
2018-04-30T18:38:43.321Z,10.20
2018-04-30T18:41:11.108Z,10.27
2018-04-30T18:43:38.922Z,9.43
2018-04-30T18:46:06.524Z,7.63
2018-04-30T18:48:34.080Z,7.80
2018-04-30T18:51:01.632Z,6.73
2018-04-30T18:53:29.394Z,6.50
2018-04-30T18:55:57.211Z,7.10
2018-04-30T18:58:24.832Z,7.57
2018-04-30T19:00:52.430Z,9.50
2018-04-30T19:03:20.151Z,8.63
2018-04-30T19:05:47.737Z,8.80
2018-04-30T19:08:15.352Z,9.30
2018-04-30T19:10:43.215Z,10.40
2018-04-30T19:13:10.932Z,8.87
2018-04-30T19:15:38.547Z,8.63
2018-04-30T19:18:06.130Z,8.87
2018-04-30T19:20:33.707Z,10.10
2018-04-30T19:23:01.504Z,10.67
2018-04-30T19:25:29.109Z,10.93
2018-04-30T19:27:56.702Z,10.47
2018-04-30T19:30:24.426Z,10.60
2018-04-30T19:32:52.167Z,9.70
2018-04-30T19:35:19.853Z,9.30
2018-04-30T19:37:47.600Z,10.00
2018-04-30T19:40:15.213Z,9.87
2018-04-30T19:42:42.826Z,11.20
2018-04-30T19:45:10.416Z,9.83
2018-04-30T19:47:38.070Z,9.00
2018-04-30T19:50:05.648Z,8.60
2018-04-30T19:52:33.435Z,8.03
2018-04-30T19:55:01.040Z,8.20
2018-04-30T19:57:29.114Z,9.17
2018-04-30T19:59:56.698Z,9.07
2018-04-30T20:02:24.332Z,10.17
2018-04-30T20:04:51.900Z,9.60
2018-04-30T20:07:19.461Z,10.47
2018-04-30T20:09:47.114Z,8.97
2018-04-30T20:12:14.704Z,8.67
2018-04-30T20:14:42.594Z,8.77
2018-04-30T20:17:10.154Z,7.87
2018-04-30T20:19:37.897Z,8.50
2018-04-30T20:22:05.629Z,8.43
2018-04-30T20:24:33.197Z,8.80
2018-04-30T20:27:00.869Z,8.73
2018-04-30T20:29:28.534Z,8.90
2018-04-30T20:31:56.101Z,10.43
2018-04-30T20:34:23.680Z,8.47
2018-04-30T20:36:51.312Z,9.57
2018-04-30T20:39:18.910Z,9.13
2018-04-30T20:41:46.474Z,9.87
2018-04-30T20:44:14.313Z,9.63
2018-04-30T20:46:41.912Z,10.03
2018-04-30T20:49:09.653Z,9.57
2018-04-30T20:51:37.393Z,9.90
2018-04-30T20:54:05.151Z,9.57
2018-04-30T20:56:32.908Z,9.70
2018-04-30T20:59:00.437Z,9.33
2018-04-30T21:01:28.248Z,9.37
2018-04-30T21:03:56.059Z,10.13
2018-04-30T21:06:23.835Z,9.40
2018-04-30T21:09:03.209Z,9.77
2018-04-30T21:11:30.963Z,9.87
2018-04-30T21:13:58.525Z,9.83
2018-04-30T21:16:26.125Z,9.97
2018-04-30T21:18:53.832Z,8.87
2018-04-30T21:21:21.645Z,9.43
2018-04-30T21:23:49.215Z,9.17
2018-04-30T21:26:16.809Z,8.87
2018-04-30T21:28:44.421Z,8.07
2018-04-30T21:31:12.102Z,9.17
2018-04-30T21:33:39.724Z,9.50
2018-04-30T21:36:07.327Z,9.33
2018-04-30T21:38:35.055Z,9.13
2018-04-30T21:41:02.681Z,9.90
2018-04-30T21:43:30.273Z,10.07
2018-04-30T21:45:57.891Z,9.93
2018-04-30T21:48:25.830Z,9.97
2018-04-30T21:50:53.481Z,8.10
2018-04-30T21:53:21.065Z,7.97
2018-04-30T21:55:48.779Z,7.73
2018-04-30T21:58:16.599Z,9.03
2018-04-30T22:00:44.185Z,9.30
2018-04-30T22:03:11.969Z,9.03
2018-04-30T22:05:39.551Z,9.30
2018-04-30T22:08:07.452Z,10.10
2018-04-30T22:10:35.085Z,9.70
2018-04-30T22:13:02.695Z,9.03
2018-04-30T22:15:30.527Z,9.43
2018-04-30T22:17:58.107Z,9.10
2018-04-30T22:20:25.681Z,10.13
2018-04-30T22:22:53.300Z,9.43
2018-04-30T22:25:21.098Z,11.73
2018-04-30T22:27:48.669Z,9.60
2018-04-30T22:30:16.319Z,9.77
2018-04-30T22:32:44.010Z,11.03
2018-04-30T22:35:11.961Z,9.90
2018-04-30T22:37:40.092Z,9.37
2018-04-30T22:40:07.811Z,9.63
2018-04-30T22:42:35.393Z,9.20
2018-04-30T22:45:02.957Z,9.33
2018-04-30T22:47:30.592Z,9.03
2018-04-30T22:49:58.148Z,9.00
2018-04-30T22:52:25.878Z,9.20
2018-04-30T22:54:53.448Z,9.70
2018-04-30T22:57:21.237Z,9.77
2018-04-30T22:59:48.857Z,9.30
2018-04-30T23:02:16.429Z,8.70
2018-04-30T23:04:44.110Z,9.87
2018-04-30T23:07:12.096Z,9.80
2018-04-30T23:09:39.867Z,9.67
2018-04-30T23:12:07.612Z,9.53
2018-04-30T23:14:35.363Z,10.30
2018-04-30T23:17:03.184Z,10.40
2018-04-30T23:19:30.883Z,10.10
2018-04-30T23:21:58.619Z,10.90
2018-04-30T23:24:26.192Z,10.17
2018-04-30T23:26:53.983Z,9.93
2018-04-30T23:29:21.616Z,10.07
2018-04-30T23:31:49.207Z,9.97
2018-04-30T23:34:17.017Z,10.20
2018-04-30T23:36:44.830Z,9.47
2018-04-30T23:39:12.391Z,9.23
2018-04-30T23:41:40.017Z,9.37
2018-04-30T23:44:07.594Z,9.97
2018-04-30T23:46:35.420Z,9.50
2018-04-30T23:49:02.992Z,10.57
2018-04-30T23:51:30.548Z,9.17
2018-04-30T23:53:58.176Z,9.93
2018-04-30T23:56:25.972Z,10.10
2018-04-30T23:58:53.538Z,9.87
